Terminal Aerodrome Forecast
Issued by NWS Charleston, WV

Current Version | Previous Version | Graphics & Text | Print | Product List | Glossary On
Versions: 1 2 3 4 5 6 7 8 9 10 11 12 13 14 15 16 17 18 19 20 21 22
048
FTUS41 KRLX 050245 AAA
TAFPKB
TAF AMD
KPKB 050245Z 0503/0524 29004KT 4SM SHRA OVC025
     FM050600 31004KT P6SM VCSH OVC025
     FM050900 VRB03KT 6SM SHRA BR OVC015
     FM051200 30004KT 3SM SHRA BR OVC007
     FM051700 35004KT 3SM SHRA BR OVC012=

USA.gov is the U.S. government's official web portal to all federal, state and local government web resources and services.